Time;durP1;ratioP1;P1;durP2;ratioP2;P2;SDS_P1;SDS_P2;PMS_P1;PMS_P2;Temp;Humidity;BMP_temperature;BMP_pressure;BME280_temperature;BME280_humidity;BME280_pressure;Samples;Min_cycle;Max_cycle;Signal;HPM_P1;HPM_P2
2023/12/21 00:00:04;;;;;;;23.10;13.10;;;;;;;-0.16;89.05;94992.69;110293;1278;22421;-79
2023/12/21 00:02:32;;;;;;;26.60;13.80;;;;;;;-0.10;89.06;94992.40;110257;1278;22143;-79
2023/12/21 00:05:00;;;;;;;22.70;12.90;;;;;;;-0.04;88.89;94990.91;110281;1278;22271;-79
2023/12/21 00:07:29;;;;;;;24.70;13.60;;;;;;;0.00;88.85;94987.86;110167;1278;23161;-79
2023/12/21 00:09:57;;;;;;;22.90;13.10;;;;;;;0.03;88.49;94983.75;110297;1278;22154;-79
2023/12/21 00:12:25;;;;;;;23.10;12.80;;;;;;;0.07;88.45;94985.17;110304;1278;22627;-79
2023/12/21 00:14:54;;;;;;;22.00;12.40;;;;;;;0.10;88.46;94990.75;110275;1274;22169;-79
2023/12/21 00:17:22;;;;;;;23.70;13.30;;;;;;;0.18;88.64;94990.15;110294;1278;22178;-79
2023/12/21 00:19:50;;;;;;;25.30;13.30;;;;;;;0.27;88.60;95000.61;110299;1278;22283;-79
2023/12/21 00:22:24;;;;;;;22.70;12.30;;;;;;;0.32;88.39;95002.05;110294;1278;22221;-79
2023/12/21 00:24:52;;;;;;;18.40;11.90;;;;;;;0.33;88.32;95000.52;110294;1278;22174;-79
2023/12/21 00:27:21;;;;;;;16.70;10.40;;;;;;;0.35;88.22;94997.08;110302;1278;22138;-79
2023/12/21 00:29:49;;;;;;;18.00;12.00;;;;;;;0.34;87.98;94993.79;110295;1278;22125;-79
2023/12/21 00:32:17;;;;;;;18.80;11.60;;;;;;;0.32;87.98;94991.16;110283;1278;22119;-79
2023/12/21 00:34:49;;;;;;;18.30;11.20;;;;;;;0.29;88.02;94995.80;110295;1278;22351;-79
2023/12/21 00:37:20;;;;;;;18.80;10.70;;;;;;;0.25;87.87;95003.71;110184;1278;22335;-79
2023/12/21 00:39:48;;;;;;;21.00;10.20;;;;;;;0.22;87.76;95005.92;110284;1278;22982;-79
2023/12/21 00:42:16;;;;;;;20.70;11.50;;;;;;;0.19;87.57;95008.14;110297;1264;23059;-79
2023/12/21 00:44:46;;;;;;;18.50;10.70;;;;;;;0.16;87.56;95011.73;110185;1278;22157;-79
2023/12/21 00:47:14;;;;;;;18.50;9.90;;;;;;;0.11;87.41;95008.56;110295;1276;22177;-79
2023/12/21 00:49:42;;;;;;;17.90;9.80;;;;;;;0.06;87.49;95007.30;110294;1278;22153;-79
2023/12/21 00:52:10;;;;;;;18.30;11.00;;;;;;;0.00;87.62;95004.97;110314;1278;22112;-79
2023/12/21 00:54:38;;;;;;;20.20;11.60;;;;;;;-0.06;87.41;95001.44;110299;1278;22137;-79
2023/12/21 00:57:06;;;;;;;17.30;9.30;;;;;;;-0.09;87.58;95007.61;110278;1278;22217;-79
2023/12/21 00:59:37;;;;;;;19.50;10.70;;;;;;;-0.14;87.49;95007.23;110315;1278;22151;-78
2023/12/21 01:02:06;;;;;;;20.00;11.90;;;;;;;-0.16;87.94;95003.04;110158;1278;22139;-79
2023/12/21 01:04:34;;;;;;;23.70;13.30;;;;;;;-0.15;88.04;94999.06;110293;1278;22125;-79
2023/12/21 01:07:03;;;;;;;18.70;11.30;;;;;;;-0.14;87.83;94996.49;110325;1278;22097;-79
2023/12/21 01:09:31;;;;;;;20.00;11.90;;;;;;;-0.11;87.85;94989.96;110158;1278;22138;-79
2023/12/21 01:11:59;;;;;;;18.40;11.50;;;;;;;-0.08;87.89;94983.43;110191;1278;22156;-79
2023/12/21 01:14:29;;;;;;;20.80;11.80;;;;;;;-0.05;87.78;94981.23;110161;1278;22123;-79
2023/12/21 01:16:58;;;;;;;22.50;14.10;;;;;;;-0.08;87.30;94976.69;110297;1278;22193;-79
2023/12/21 01:19:26;;;;;;;20.60;12.10;;;;;;;-0.14;87.13;94976.45;110294;1278;22199;-79
2023/12/21 01:21:55;;;;;;;16.80;10.70;;;;;;;-0.14;87.40;94979.73;110289;1278;22172;-79
2023/12/21 01:24:23;;;;;;;16.80;10.70;;;;;;;-0.12;87.70;94975.44;110316;1278;22288;-79
2023/12/21 01:26:51;;;;;;;18.40;10.60;;;;;;;-0.10;88.11;94970.98;110281;1278;22148;-79
2023/12/21 01:29:20;;;;;;;18.40;9.70;;;;;;;-0.06;88.30;94968.23;110299;1278;22386;-79
2023/12/21 01:31:50;;;;;;;25.70;13.90;;;;;;;-0.06;87.96;94965.99;110291;1278;22838;-80
2023/12/21 01:34:19;;;;;;;25.80;14.60;;;;;;;-0.06;87.93;94962.36;110086;1278;22148;-79
2023/12/21 01:36:47;;;;;;;28.30;16.20;;;;;;;-0.09;87.53;94957.31;110312;1278;22183;-79
2023/12/21 01:39:15;;;;;;;17.00;10.00;;;;;;;-0.14;87.38;94961.58;110277;1278;22159;-79
2023/12/21 01:41:46;;;;;;;16.60;10.00;;;;;;;-0.25;86.76;94956.44;110314;1264;22138;-79
2023/12/21 01:44:15;;;;;;;19.10;11.20;;;;;;;-0.27;87.28;94951.74;110174;1276;22113;-79
2023/12/21 01:46:43;;;;;;;21.00;12.10;;;;;;;-0.32;86.93;94954.95;110081;1278;22371;-79
2023/12/21 01:49:12;;;;;;;18.60;11.10;;;;;;;-0.37;86.79;94954.55;110312;1278;23009;-79
2023/12/21 01:51:41;;;;;;;17.80;9.70;;;;;;;-0.42;87.14;94952.42;110317;1278;22902;-79
2023/12/21 01:54:10;;;;;;;26.30;13.80;;;;;;;-0.37;87.74;94951.09;110296;1278;22560;-79
2023/12/21 01:56:38;;;;;;;19.00;11.70;;;;;;;-0.34;87.49;94948.71;110311;1278;22150;-79
2023/12/21 01:59:06;;;;;;;19.70;11.70;;;;;;;-0.34;87.16;94950.78;110152;1278;22123;-79
2023/12/21 02:01:38;;;;;;;13.90;9.40;;;;;;;-0.41;86.75;94949.14;110287;1278;22360;-79
2023/12/21 02:04:07;;;;;;;14.20;8.80;;;;;;;-0.49;86.73;94949.39;110151;1278;22149;-79
2023/12/21 02:06:35;;;;;;;15.60;9.10;;;;;;;-0.64;86.61;94945.90;110293;1278;22179;-78
2023/12/21 02:09:03;;;;;;;22.00;12.50;;;;;;;-0.75;86.69;94951.63;110295;1270;23050;-79
2023/12/21 02:11:31;;;;;;;26.80;15.90;;;;;;;-0.84;86.89;94949.41;110312;1278;23058;-79
2023/12/21 02:14:00;;;;;;;25.20;14.30;;;;;;;-0.92;87.06;94949.81;110295;1278;22193;-79
2023/12/21 02:16:48;;;;;;;20.90;12.60;;;;;;;-1.02;86.83;94953.63;110310;1278;22125;-79
2023/12/21 02:19:18;;;;;;;22.00;12.40;;;;;;;-1.08;87.00;94958.73;110298;1278;22779;-79
2023/12/21 02:21:48;;;;;;;20.80;10.80;;;;;;;-1.11;87.43;94958.51;110282;1278;22184;-79
2023/12/21 02:24:17;;;;;;;16.50;9.90;;;;;;;-1.14;87.57;94960.36;110308;1278;22145;-79
2023/12/21 02:26:46;;;;;;;19.30;10.60;;;;;;;-1.17;88.03;94954.79;110161;1278;22115;-79
2023/12/21 02:29:14;;;;;;;26.60;14.40;;;;;;;-1.15;89.10;94954.81;110306;1278;22401;-78
2023/12/21 02:31:42;;;;;;;19.20;11.30;;;;;;;-1.13;89.22;94952.27;110310;1278;22898;-78
2023/12/21 02:34:11;;;;;;;25.10;13.40;;;;;;;-1.14;89.17;94946.73;110313;1278;22881;-79
2023/12/21 02:36:39;;;;;;;29.70;16.20;;;;;;;-1.14;89.52;94941.72;110343;1278;22195;-79
2023/12/21 02:39:07;;;;;;;30.60;17.00;;;;;;;-1.12;89.42;94934.33;110310;1263;22182;-79
2023/12/21 02:41:36;;;;;;;34.40;17.70;;;;;;;-1.11;89.52;94930.02;110313;1278;22858;-79
2023/12/21 02:44:04;;;;;;;27.00;16.10;;;;;;;-1.11;89.20;94928.48;110314;1278;22759;-78
2023/12/21 02:46:32;;;;;;;32.50;16.10;;;;;;;-1.11;89.31;94936.41;110162;1278;22279;-79
2023/12/21 02:49:00;;;;;;;27.60;15.50;;;;;;;-1.11;89.69;94931.58;110295;1278;22145;-78
2023/12/21 02:51:28;;;;;;;30.00;15.30;;;;;;;-1.09;89.67;94922.63;110311;1278;22147;-79
2023/12/21 02:53:57;;;;;;;28.60;16.20;;;;;;;-1.06;90.33;94922.86;110328;1278;22196;-79
2023/12/21 02:56:25;;;;;;;25.40;14.50;;;;;;;-1.03;90.02;94923.08;110314;1277;22761;-78
2023/12/21 02:58:53;;;;;;;23.10;14.40;;;;;;;-1.00;90.10;94918.29;110293;1278;22158;-78
2023/12/21 03:01:21;;;;;;;21.40;11.50;;;;;;;-0.95;90.85;94917.67;110304;1278;22123;-79
2023/12/21 03:03:50;;;;;;;22.70;13.00;;;;;;;-0.88;91.17;94920.86;110301;1278;22833;-79
2023/12/21 03:06:19;;;;;;;19.40;11.80;;;;;;;-0.81;91.15;94920.11;110165;1278;22112;-78
2023/12/21 03:08:47;;;;;;;18.00;10.40;;;;;;;-0.73;91.54;94917.30;110323;1278;22125;-79
2023/12/21 03:11:15;;;;;;;21.30;12.20;;;;;;;-0.65;91.54;94917.05;110325;1270;22143;-79
2023/12/21 03:13:43;;;;;;;21.70;11.50;;;;;;;-0.60;91.27;94922.48;110288;1278;22132;-79
2023/12/21 03:16:12;;;;;;;20.90;12.60;;;;;;;-0.59;91.03;94918.67;110317;1278;22230;-79
2023/12/21 03:18:40;;;;;;;23.00;11.70;;;;;;;-0.60;90.54;94916.60;110081;1267;22344;-79
2023/12/21 03:21:09;;;;;;;19.70;13.00;;;;;;;-0.61;90.48;94917.09;110156;1278;22119;-79
2023/12/21 03:23:40;;;;;;;20.70;11.30;;;;;;;-0.63;90.23;94921.73;110314;1278;22154;-79
2023/12/21 03:26:11;;;;;;;19.10;11.40;;;;;;;-0.71;89.71;94921.10;110172;1278;22149;-78
2023/12/21 03:28:44;;;;;;;18.40;11.00;;;;;;;-0.77;89.66;94914.27;110139;1278;22152;-79
2023/12/21 03:31:16;;;;;;;19.60;10.70;;;;;;;-0.82;89.51;94919.39;110323;1278;22296;-79
2023/12/21 03:33:44;;;;;;;19.00;10.50;;;;;;;-0.92;89.08;94915.29;110301;1278;22896;-79
2023/12/21 03:36:13;;;;;;;17.80;10.50;;;;;;;-0.99;89.33;94914.83;110307;1278;22161;-79
2023/12/21 03:38:41;;;;;;;17.70;10.30;;;;;;;-1.04;89.58;94917.02;110294;1278;22134;-78
2023/12/21 03:41:09;;;;;;;16.80;9.80;;;;;;;-1.06;89.58;94912.16;110172;1278;22210;-79
2023/12/21 03:43:37;;;;;;;19.70;11.10;;;;;;;-1.12;89.23;94904.81;110294;1278;22281;-79
2023/12/21 03:46:09;;;;;;;20.80;10.90;;;;;;;-1.23;88.69;94906.90;110299;1278;22213;-78
2023/12/21 03:48:38;;;;;;;25.40;13.90;;;;;;;-1.39;88.08;94906.46;110152;1278;22083;-78
2023/12/21 03:51:06;;;;;;;18.50;11.50;;;;;;;-1.53;87.92;94906.23;110291;1278;22126;-78
2023/12/21 03:53:34;;;;;;;20.40;12.20;;;;;;;-1.63;88.15;94907.98;110338;1278;22131;-79
2023/12/21 03:56:02;;;;;;;19.90;10.90;;;;;;;-1.72;87.90;94909.54;110315;1278;22340;-78
2023/12/21 03:58:31;;;;;;;20.10;12.10;;;;;;;-1.83;87.88;94908.84;110318;1278;22131;-78
2023/12/21 04:00:59;;;;;;;21.00;11.00;;;;;;;-1.94;87.71;94904.86;110311;1278;22179;-78
2023/12/21 04:03:27;;;;;;;34.40;18.10;;;;;;;-2.03;87.82;94908.98;110297;1278;22971;-78
2023/12/21 04:05:56;;;;;;;24.30;13.70;;;;;;;-2.05;88.33;94908.61;110302;1278;22150;-78
2023/12/21 04:08:24;;;;;;;30.30;15.60;;;;;;;-2.03;88.60;94902.45;110309;1278;22796;-78
2023/12/21 04:10:52;;;;;;;19.90;11.90;;;;;;;-2.02;88.56;94906.77;110294;1278;22222;-78
2023/12/21 04:13:20;;;;;;;18.60;9.80;;;;;;;-2.05;88.48;94905.17;110311;1278;22341;-78
2023/12/21 04:15:51;;;;;;;12.30;7.60;;;;;;;-2.05;88.54;94906.90;110302;1278;22285;-78
2023/12/21 04:18:19;;;;;;;9.20;6.00;;;;;;;-2.07;88.49;94908.58;110290;1278;22941;-78
2023/12/21 04:20:47;;;;;;;10.90;6.30;;;;;;;-2.08;88.43;94909.42;110309;1278;22134;-78
2023/12/21 04:23:16;;;;;;;15.80;7.60;;;;;;;-2.09;88.74;94908.71;110313;1278;22959;-78
2023/12/21 04:25:44;;;;;;;12.20;7.10;;;;;;;-2.12;88.76;94911.39;110323;1278;22275;-79
2023/12/21 04:28:12;;;;;;;15.50;8.80;;;;;;;-2.13;88.88;94916.57;110319;1278;22127;-78
2023/12/21 04:30:40;;;;;;;9.50;5.40;;;;;;;-2.11;88.96;94920.38;110114;1278;22337;-78
2023/12/21 04:33:11;;;;;;;23.10;9.70;;;;;;;-2.11;88.79;94917.29;110148;1278;22168;-78
2023/12/21 04:35:42;;;;;;;12.90;5.80;;;;;;;-2.14;88.74;94919.99;110326;1278;22196;-78
2023/12/21 04:38:11;;;;;;;7.50;5.00;;;;;;;-2.15;88.71;94922.73;110302;1278;22153;-79
2023/12/21 04:40:39;;;;;;;13.20;7.50;;;;;;;-2.13;88.69;94920.18;110323;1278;22912;-78
2023/12/21 04:43:09;;;;;;;10.00;6.20;;;;;;;-2.11;88.80;94931.42;110306;1278;22227;-78
2023/12/21 04:45:37;;;;;;;11.50;6.50;;;;;;;-2.12;88.68;94935.71;109889;1278;567694;-79
2023/12/21 04:48:07;;;;;;;12.20;7.90;;;;;;;-2.14;88.80;94937.90;110293;1278;22894;-78
2023/12/21 04:50:35;;;;;;;15.10;8.90;;;;;;;-2.17;88.71;94943.00;110311;1278;22147;-78
2023/12/21 04:53:04;;;;;;;12.70;8.30;;;;;;;-2.14;89.23;94943.08;110315;1278;22867;-79
2023/12/21 04:55:33;;;;;;;63.80;30.70;;;;;;;-2.15;89.28;94949.60;110318;1278;22216;-78
2023/12/21 04:58:02;;;;;;;79.90;36.50;;;;;;;-2.12;89.91;94943.81;110171;1278;22137;-78
2023/12/21 05:00:30;;;;;;;46.70;25.40;;;;;;;-2.07;90.06;94948.38;110311;1278;22935;-79
2023/12/21 05:02:59;;;;;;;39.70;20.90;;;;;;;-2.03;89.95;94948.63;110155;1278;22967;-78
2023/12/21 05:05:27;;;;;;;26.70;13.00;;;;;;;-2.00;90.21;94946.27;110303;1278;22148;-78
2023/12/21 05:07:55;;;;;;;19.90;10.00;;;;;;;-1.80;91.07;94946.98;110310;1278;22130;-78
2023/12/21 05:10:24;;;;;;;10.60;6.00;;;;;;;-1.49;91.22;94941.48;110300;1278;22163;-79
2023/12/21 05:12:52;;;;;;;7.20;4.00;;;;;;;-1.20;90.42;94940.59;110333;1278;22221;-78
2023/12/21 05:15:20;;;;;;;3.30;2.40;;;;;;;-0.93;89.38;94938.58;110331;1278;22215;-79
2023/12/21 05:17:48;;;;;;;3.20;2.40;;;;;;;-0.68;88.81;94943.42;110312;1278;22917;-78
2023/12/21 05:20:17;;;;;;;4.80;3.20;;;;;;;-0.53;89.19;94940.01;110323;1278;22091;-77
2023/12/21 05:22:45;;;;;;;4.70;2.60;;;;;;;-0.41;88.48;94943.09;110296;1278;22154;-78
2023/12/21 05:25:17;;;;;;;4.70;2.50;;;;;;;-0.31;87.87;94943.05;110301;1278;22114;-77
2023/12/21 05:27:45;;;;;;;3.40;2.10;;;;;;;-0.18;87.50;94942.01;110310;1278;22930;-78
2023/12/21 05:30:17;;;;;;;5.30;2.90;;;;;;;-0.06;87.90;94946.80;110302;1278;22808;-78
2023/12/21 05:32:46;;;;;;;2.70;1.80;;;;;;;0.03;86.83;94947.09;110165;1278;22205;-79
2023/12/21 05:35:15;;;;;;;3.20;2.20;;;;;;;0.20;83.77;94939.31;110309;1264;22951;-79
2023/12/21 05:37:43;;;;;;;25.90;16.70;;;;;;;0.29;84.42;94934.91;110329;1278;22575;-79
2023/12/21 05:40:12;;;;;;;8.40;4.40;;;;;;;0.32;84.70;94940.83;110330;1278;22807;-78
2023/12/21 05:42:40;;;;;;;9.70;4.90;;;;;;;0.32;84.68;94941.52;110068;1278;22975;-79
2023/12/21 05:45:09;;;;;;;10.60;5.10;;;;;;;0.30;84.41;94935.78;110338;1277;22204;-78
2023/12/21 05:47:37;;;;;;;11.40;5.30;;;;;;;0.29;83.93;94934.20;110300;1278;22912;-79
2023/12/21 05:50:06;;;;;;;8.10;4.40;;;;;;;0.26;83.88;94930.73;110284;1278;22921;-78
2023/12/21 05:52:35;;;;;;;6.60;4.00;;;;;;;0.18;84.02;94927.88;110310;1278;23097;-78
2023/12/21 05:55:03;;;;;;;6.10;3.00;;;;;;;0.14;84.06;94923.85;110320;1278;22125;-78
2023/12/21 05:57:32;;;;;;;5.60;3.80;;;;;;;0.09;84.28;94930.04;110321;1278;22297;-78
2023/12/21 06:00:00;;;;;;;7.30;3.70;;;;;;;0.04;84.08;94933.09;110311;1278;22142;-78
2023/12/21 06:02:28;;;;;;;6.90;3.50;;;;;;;-0.07;84.03;94930.20;110308;1278;22126;-78
2023/12/21 06:04:57;;;;;;;10.50;6.20;;;;;;;-0.16;84.29;94923.20;110292;1278;22338;-78
2023/12/21 06:07:25;;;;;;;10.90;5.80;;;;;;;-0.22;84.43;94920.02;110321;1278;22135;-78
2023/12/21 06:09:55;;;;;;;15.60;5.60;;;;;;;-0.27;84.52;94915.97;110287;1278;22141;-78
2023/12/21 06:12:23;;;;;;;4.70;2.70;;;;;;;-0.33;84.58;94924.02;110307;1278;22123;-78
2023/12/21 06:14:51;;;;;;;2.70;2.20;;;;;;;-0.38;84.72;94922.74;110071;1278;22372;-78
2023/12/21 06:17:20;;;;;;;7.80;3.70;;;;;;;-0.41;84.81;94931.18;110292;1278;22228;-78
2023/12/21 06:19:48;;;;;;;4.30;2.70;;;;;;;-0.45;85.01;94928.02;110328;1278;22954;-78
2023/12/21 06:22:16;;;;;;;3.20;2.00;;;;;;;-0.47;85.13;94923.15;110120;1278;22910;-78
2023/12/21 06:24:45;;;;;;;3.00;1.60;;;;;;;-0.49;85.26;94914.67;110312;1278;22182;-79
2023/12/21 06:27:13;;;;;;;2.90;2.00;;;;;;;-0.50;85.27;94912.94;110310;1278;22832;-78
2023/12/21 06:29:42;;;;;;;3.30;1.90;;;;;;;-0.53;85.12;94905.98;110273;1278;22145;-78
2023/12/21 06:32:11;;;;;;;4.00;2.40;;;;;;;-0.54;85.24;94900.79;110291;1278;22808;-78
2023/12/21 06:34:39;;;;;;;2.70;2.10;;;;;;;-0.52;85.49;94897.35;110292;1278;22150;-78
2023/12/21 06:37:07;;;;;;;2.90;1.70;;;;;;;-0.49;85.66;94894.44;110305;1278;22142;-78
2023/12/21 06:39:36;;;;;;;10.50;7.20;;;;;;;-0.46;85.64;94895.35;110291;1264;22089;-78
2023/12/21 06:42:05;;;;;;;14.40;8.60;;;;;;;-0.44;85.66;94892.96;110281;1278;22146;-79
2023/12/21 06:44:33;;;;;;;36.10;22.70;;;;;;;-0.37;86.19;94897.69;110290;1278;22757;-79
2023/12/21 06:47:02;;;;;;;8.80;4.60;;;;;;;-0.28;86.47;94902.83;110307;1278;22159;-79
2023/12/21 06:49:30;;;;;;;7.00;4.40;;;;;;;-0.16;86.51;94906.93;110270;1278;22958;-80
2023/12/21 06:51:59;;;;;;;5.00;3.70;;;;;;;-0.06;86.20;94906.52;110254;1278;22145;-80
2023/12/21 06:54:28;;;;;;;5.80;2.90;;;;;;;0.05;85.82;94901.98;110305;1278;22366;-79
2023/12/21 06:56:56;;;;;;;4.40;3.30;;;;;;;0.14;85.75;94901.20;110284;1278;22201;-79
2023/12/21 06:59:28;;;;;;;4.20;2.50;;;;;;;0.25;85.33;94899.23;110297;1278;22155;-79
2023/12/21 07:01:56;;;;;;;4.10;2.60;;;;;;;0.39;85.90;94897.81;110186;1273;22279;-79
2023/12/21 07:04:25;;;;;;;4.20;2.50;;;;;;;0.50;85.44;94901.55;110293;1274;22160;-77
2023/12/21 07:06:53;;;;;;;7.20;4.10;;;;;;;0.60;84.99;94904.41;110251;1278;23054;-80
2023/12/21 07:09:21;;;;;;;7.10;4.60;;;;;;;0.70;83.23;94907.42;110260;1278;23139;-77
2023/12/21 07:11:49;;;;;;;8.50;4.40;;;;;;;0.80;82.68;94905.09;110182;1278;22193;-79
2023/12/21 07:14:17;;;;;;;8.90;4.80;;;;;;;0.88;82.23;94904.95;110245;1264;22347;-78
2023/12/21 07:16:46;;;;;;;7.70;4.00;;;;;;;0.94;82.91;94894.61;110313;1277;22202;-78
2023/12/21 07:19:14;;;;;;;3.00;2.60;;;;;;;0.98;82.96;94888.05;110353;1277;22272;-80
2023/12/21 07:21:42;;;;;;;6.70;2.70;;;;;;;1.00;83.05;94892.58;110353;1277;22283;-80
2023/12/21 07:24:10;;;;;;;5.10;3.00;;;;;;;1.01;82.74;94887.39;110333;1277;22189;-80
2023/12/21 07:26:39;;;;;;;6.00;2.80;;;;;;;1.04;82.75;94888.27;110321;1277;22177;-77
2023/12/21 07:29:07;;;;;;;4.60;3.00;;;;;;;1.05;82.56;94884.48;110300;1273;22406;-80
2023/12/21 07:31:35;;;;;;;7.00;4.10;;;;;;;1.03;82.48;94881.69;110347;1277;22311;-78
2023/12/21 07:34:05;;;;;;;8.30;5.30;;;;;;;1.02;82.40;94888.79;110313;1277;22851;-80
2023/12/21 07:36:33;;;;;;;6.30;4.60;;;;;;;1.02;82.03;94891.73;110328;1277;22278;-80
2023/12/21 07:39:02;;;;;;;6.60;4.40;;;;;;;1.01;82.07;94899.17;110361;1277;22835;-81
2023/12/21 07:41:30;;;;;;;5.60;3.30;;;;;;;1.00;82.10;94901.06;110375;1277;22109;-78
2023/12/21 07:43:59;;;;;;;4.30;2.90;;;;;;;0.98;82.23;94903.31;110338;1277;22299;-79
2023/12/21 07:46:27;;;;;;;4.60;2.60;;;;;;;0.97;82.27;94903.48;110293;1277;22147;-78
2023/12/21 07:48:56;;;;;;;6.40;3.30;;;;;;;0.96;81.86;94908.30;110326;1277;23113;-79
2023/12/21 07:51:24;;;;;;;6.40;3.50;;;;;;;0.94;81.44;94913.14;110319;1277;23263;-79
2023/12/21 07:53:52;;;;;;;6.40;3.90;;;;;;;0.94;81.30;94919.55;110361;1277;22161;-80
2023/12/21 07:56:21;;;;;;;7.10;4.40;;;;;;;0.95;81.28;94920.60;110310;1277;22192;-79
2023/12/21 07:58:49;;;;;;;16.80;11.50;;;;;;;0.97;81.13;94923.39;110345;1277;22147;-78
2023/12/21 08:01:17;;;;;;;13.10;8.20;;;;;;;0.99;81.29;94923.75;110305;1277;22137;-77
2023/12/21 08:03:46;;;;;;;9.50;4.80;;;;;;;1.01;81.30;94919.27;110308;1277;22299;-77
2023/12/21 08:06:21;;;;;;;7.10;4.30;;;;;;;1.03;81.46;94920.83;110330;1277;22193;-76
2023/12/21 08:08:52;;;;;;;5.50;3.70;;;;;;;1.04;81.47;94917.04;110291;1277;22204;-77
2023/12/21 08:11:25;;;;;;;4.30;3.20;;;;;;;1.05;81.48;94915.64;110373;1277;22213;-77
2023/12/21 08:13:57;;;;;;;7.30;4.20;;;;;;;1.04;81.50;94910.63;110338;1277;22156;-78
2023/12/21 08:16:26;;;;;;;6.50;4.70;;;;;;;1.03;81.65;94911.48;110342;1277;22093;-78
2023/12/21 08:18:55;;;;;;;5.20;3.80;;;;;;;1.02;81.34;94906.63;110342;1277;22153;-77
2023/12/21 08:21:24;;;;;;;6.70;3.80;;;;;;;1.01;81.51;94906.61;110352;1277;22205;-77
2023/12/21 08:23:52;;;;;;;6.40;3.40;;;;;;;0.98;81.77;94904.69;110345;1277;22331;-77
2023/12/21 08:26:20;;;;;;;4.90;3.30;;;;;;;0.94;81.79;94902.06;110147;1277;22257;-78
2023/12/21 08:28:49;;;;;;;8.40;5.00;;;;;;;0.93;81.83;94908.46;110252;1277;22223;-77
2023/12/21 08:31:25;;;;;;;7.60;4.90;;;;;;;0.92;81.68;94906.73;110339;1277;22395;-79
2023/12/21 08:33:54;;;;;;;10.60;5.90;;;;;;;0.91;81.75;94901.86;110325;1277;22963;-77
2023/12/21 08:36:22;;;;;;;9.50;5.60;;;;;;;0.90;81.73;94906.54;110337;1277;22881;-78
2023/12/21 08:38:51;;;;;;;27.20;12.00;;;;;;;0.94;81.66;94910.90;110375;1277;22145;-77
2023/12/21 08:41:21;;;;;;;20.90;9.70;;;;;;;0.99;81.60;94902.97;110312;1277;22213;-79
2023/12/21 08:43:49;;;;;;;10.20;5.00;;;;;;;1.02;81.48;94893.30;110348;1277;22160;-78
2023/12/21 08:46:17;;;;;;;14.20;7.80;;;;;;;1.02;81.44;94885.33;110330;1277;22136;-77
2023/12/21 08:48:45;;;;;;;13.70;7.30;;;;;;;1.08;81.73;94886.58;110359;1277;22320;-76
2023/12/21 08:51:14;;;;;;;17.40;10.10;;;;;;;1.15;81.92;94885.06;110347;1277;22927;-78
2023/12/21 08:53:46;;;;;;;16.80;9.60;;;;;;;1.28;82.34;94878.38;110347;1277;22199;-79
2023/12/21 08:56:15;;;;;;;14.80;8.60;;;;;;;1.44;82.47;94867.02;110301;1277;22829;-77
2023/12/21 08:58:43;;;;;;;12.20;6.90;;;;;;;1.63;82.21;94858.61;110343;1277;22218;-77
2023/12/21 09:01:13;;;;;;;7.30;4.90;;;;;;;1.85;82.52;94854.00;110327;1277;23095;-79
2023/12/21 09:03:43;;;;;;;2.80;1.80;;;;;;;2.06;80.34;94843.30;110317;1277;22210;-77
2023/12/21 09:06:12;;;;;;;1.90;1.00;;;;;;;2.33;76.31;94843.34;110322;1270;22130;-80
2023/12/21 09:08:40;;;;;;;4.40;2.20;;;;;;;2.57;77.49;94840.23;110347;1277;22197;-78
2023/12/21 09:11:08;;;;;;;0.80;0.70;;;;;;;2.81;75.78;94830.66;110317;1277;22200;-77
2023/12/21 09:13:37;;;;;;;7.00;3.80;;;;;;;3.04;74.55;94825.42;110339;1277;22944;-77
2023/12/21 09:16:08;;;;;;;1.60;1.20;;;;;;;3.20;75.78;94824.86;110300;1273;22259;-76
2023/12/21 09:18:36;;;;;;;5.90;4.50;;;;;;;3.34;75.10;94816.83;110297;1277;22162;-76
2023/12/21 09:21:05;;;;;;;3.60;2.40;;;;;;;3.45;74.48;94807.74;110290;1277;23266;-76
2023/12/21 09:23:33;;;;;;;2.10;1.70;;;;;;;3.60;72.85;94810.64;110332;1277;23191;-77
2023/12/21 09:26:02;;;;;;;3.40;2.40;;;;;;;3.70;70.87;94808.33;110365;1277;22196;-76
2023/12/21 09:28:30;;;;;;;5.60;3.50;;;;;;;3.77;71.36;94808.46;110339;1277;22139;-76
2023/12/21 09:30:58;;;;;;;5.10;3.00;;;;;;;3.80;70.68;94812.11;110202;1277;22397;-76
2023/12/21 09:33:27;;;;;;;6.90;4.20;;;;;;;3.79;70.71;94817.33;110347;1277;22207;-76
2023/12/21 09:35:58;;;;;;;3.30;1.90;;;;;;;3.80;70.03;94816.29;110320;1277;22151;-76
2023/12/21 09:38:26;;;;;;;2.20;1.50;;;;;;;3.82;69.33;94813.48;110339;1277;22365;-76
2023/12/21 09:40:57;;;;;;;2.40;1.50;;;;;;;3.91;69.71;94815.53;110363;1277;22149;-76
2023/12/21 09:43:25;;;;;;;2.20;1.80;;;;;;;3.97;68.72;94818.11;110364;1277;22151;-76
2023/12/21 09:45:57;;;;;;;2.80;1.70;;;;;;;4.10;68.49;94814.38;110354;1276;22175;-76
2023/12/21 09:48:26;;;;;;;1.70;1.30;;;;;;;4.34;67.81;94812.30;110346;1277;22132;-76
2023/12/21 09:50:57;;;;;;;4.00;1.90;;;;;;;4.65;67.69;94805.09;110295;1277;22195;-76
2023/12/21 09:53:26;;;;;;;3.10;1.60;;;;;;;4.88;65.94;94801.56;110352;1277;22166;-76
2023/12/21 09:55:55;;;;;;;1.80;1.00;;;;;;;4.95;64.58;94791.06;110335;1277;22159;-76
2023/12/21 09:58:23;;;;;;;3.80;1.50;;;;;;;5.27;64.97;94779.56;110335;1277;22160;-76
2023/12/21 10:00:52;;;;;;;0.90;0.70;;;;;;;5.49;64.27;94780.34;110349;1277;22133;-76
2023/12/21 10:03:20;;;;;;;1.40;1.30;;;;;;;5.76;63.57;94790.48;110323;1277;22137;-76
2023/12/21 10:05:48;;;;;;;2.50;1.30;;;;;;;5.97;62.46;94796.85;110248;1277;22291;-76
2023/12/21 10:08:18;;;;;;;1.90;1.30;;;;;;;6.07;61.21;94787.14;110331;1277;22167;-76
2023/12/21 10:10:46;;;;;;;3.30;2.30;;;;;;;6.35;61.64;94785.33;110341;1277;22180;-76
2023/12/21 10:13:16;;;;;;;2.50;1.20;;;;;;;6.52;59.95;94786.98;110336;1277;22154;-76
2023/12/21 10:15:46;;;;;;;2.70;2.30;;;;;;;6.69;59.86;94782.68;110348;1266;22209;-77
2023/12/21 10:18:15;;;;;;;10.10;6.60;;;;;;;6.77;58.47;94767.86;110335;1277;22114;-78
2023/12/21 10:20:43;;;;;;;2.30;1.80;;;;;;;7.01;59.34;94767.80;110313;1277;22127;-77
2023/12/21 10:23:12;;;;;;;2.00;1.00;;;;;;;7.18;58.45;94766.60;110350;1277;22235;-77
2023/12/21 10:25:45;;;;;;;1.60;1.40;;;;;;;7.12;57.26;94767.58;110322;1277;22227;-78
2023/12/21 10:28:14;;;;;;;3.00;2.00;;;;;;;7.28;56.89;94757.51;110341;1277;22276;-76
2023/12/21 10:30:42;;;;;;;3.10;1.20;;;;;;;7.29;56.51;94744.88;110247;1277;22102;-77
2023/12/21 10:33:12;;;;;;;2.40;1.80;;;;;;;7.49;57.16;94741.16;110335;1277;22208;-77
2023/12/21 10:35:40;;;;;;;4.00;2.70;;;;;;;7.90;56.22;94738.73;110303;1277;22103;-77
2023/12/21 10:38:09;;;;;;;2.00;1.40;;;;;;;7.73;54.62;94735.92;110318;1277;22359;-77
2023/12/21 10:40:37;;;;;;;5.30;3.80;;;;;;;7.68;54.88;94736.56;110339;1277;22392;-76
2023/12/21 10:43:07;;;;;;;1.10;1.00;;;;;;;7.73;54.75;94734.19;110324;1277;22134;-77
2023/12/21 10:45:35;;;;;;;1.60;1.10;;;;;;;7.69;54.67;94739.34;110254;1277;22150;-77
2023/12/21 10:48:11;;;;;;;2.20;1.30;;;;;;;7.71;55.11;94739.84;110262;1277;22967;-77
2023/12/21 10:50:39;;;;;;;1.70;1.20;;;;;;;7.73;55.76;94738.21;110225;1277;22155;-77
2023/12/21 10:53:12;;;;;;;2.00;1.30;;;;;;;8.09;55.50;94727.95;110294;1277;22117;-77
2023/12/21 10:55:41;;;;;;;3.40;2.30;;;;;;;8.41;53.96;94738.98;110262;1277;22134;-78
2023/12/21 10:58:11;;;;;;;1.90;1.40;;;;;;;8.58;53.01;94733.31;110237;1277;22165;-77
2023/12/21 11:00:42;;;;;;;5.60;3.80;;;;;;;8.94;53.44;94722.39;110326;1266;22297;-78
2023/12/21 11:03:16;;;;;;;1.80;1.10;;;;;;;9.18;51.37;94716.86;110307;1277;22146;-77
2023/12/21 11:05:46;;;;;;;2.50;1.30;;;;;;;9.20;51.02;94701.02;110237;1277;22344;-78
2023/12/21 11:08:14;;;;;;;8.20;6.10;;;;;;;9.53;50.58;94698.48;110307;1277;22824;-78
2023/12/21 11:10:45;;;;;;;2.20;1.70;;;;;;;9.42;49.91;94693.54;110327;1277;22105;-78
2023/12/21 11:13:13;;;;;;;2.60;2.00;;;;;;;9.55;50.03;94690.17;110315;1277;22171;-78
2023/12/21 11:15:43;;;;;;;8.30;6.00;;;;;;;9.78;49.46;94683.38;110282;1277;22193;-78
2023/12/21 11:18:20;;;;;;;3.90;3.00;;;;;;;9.85;49.34;94669.63;110250;1277;22179;-77
2023/12/21 11:20:54;;;;;;;3.90;2.70;;;;;;;9.79;49.35;94654.35;110310;1277;22189;-76
2023/12/21 11:23:24;;;;;;;3.80;2.90;;;;;;;10.03;49.18;94650.45;110301;1277;22226;-78
2023/12/21 11:25:56;;;;;;;2.90;1.80;;;;;;;9.88;48.78;94640.72;110298;1277;22136;-77
2023/12/21 11:28:32;;;;;;;2.60;1.50;;;;;;;10.07;48.33;94625.55;110099;1277;22991;-78